WetterOnline ( http://www.wetteronline.de )

Wetter aktuell Paderborn

Aktuelles Wetter: Bad Lippspringe (158m)

6-stündlich | Neueste Meldungen
Ortszeit Temperatur Wetter
Di, 21.08. 8:00 18.4° C fast wolkenlos
Di, 21.08. 2:00 16.8° C wolkig
Mo, 20.08. 20:00 21.0° C bedeckt
Mo, 20.08. 14:00 22.3° C bedeckt
Mo, 20.08. 8:00 19.2° C bedeckt
Mo, 20.08. 2:00 16.5° C wolkig
So, 19.08. 20:00 24.8° C wolkenlos
So, 19.08. 14:00 25.2° C leicht bewölkt
Ortszeit Temperatur Wetter
Di, 21.08. 12:30 22.3° C bedeckt
Di, 21.08. 12:20 22.3° C bedeckt
Di, 21.08. 12:10 22.4° C bedeckt
Di, 21.08. 12:00 22.1° C bewölkt
Di, 21.08. 11:50 22.1° C bewölkt
Di, 21.08. 11:40 22.2° C wolkig
Di, 21.08. 11:30 21.6° C wolkenlos
Di, 21.08. 11:00 22.6° C wolkenlos
Di, 21.08. 10:30 22.8° C wolkenlos
Di, 21.08. 10:00 21.8° C wolkenlos
Di, 21.08. 9:30 20.9° C wolkenlos
Ortszeit Relative Feuchte Sichtweite
Di, 21.08. 8:00 86% 27 km
Di, 21.08. 2:00 96% 15 km
Mo, 20.08. 20:00 76% 13 km
Mo, 20.08. 14:00 68% 10 km
Mo, 20.08. 8:00 80% 19 km
Mo, 20.08. 2:00 80% 26 km
So, 19.08. 20:00 43% 35 km
So, 19.08. 14:00 46% 24 km
Ortszeit Relative Feuchte Sichtweite
Di, 21.08. 12:30 59% 70 km
Di, 21.08. 12:20 59% -
Di, 21.08. 12:10 58% -
Di, 21.08. 12:00 62% 65 km
Di, 21.08. 11:50 62% -
Di, 21.08. 11:40 63% -
Di, 21.08. 11:30 66% 70 km
Di, 21.08. 11:00 58% 30 km
Di, 21.08. 10:30 60% 40 km
Di, 21.08. 10:00 67% 35 km
Di, 21.08. 9:30 72% 26 km
Ortszeit Niederschlagsmenge Niederschlagsart
Di, 21.08. 8:00 0.3 l/m2 in 12 Std. -
Di, 21.08. 2:00 0.3 l/m2 in 6 Std. Regen
Mo, 20.08. 20:00 0.1 l/m2 in 12 Std. Regen
Mo, 20.08. 14:00 0.1 l/m2 in 6 Std. Regen
Mo, 20.08. 8:00 0.0 l/m2 in 12 Std. -
Mo, 20.08. 2:00 0.0 l/m2 in 6 Std. -
So, 19.08. 20:00 0.0 l/m2 in 12 Std. -
So, 19.08. 14:00 0.0 l/m2 in 6 Std. -
Ortszeit Niederschlagsmenge Niederschlagsart
Di, 21.08. 12:30 0.0 l/m2 in 1 Std. -
Di, 21.08. 12:20 keine Meldung -
Di, 21.08. 12:10 keine Meldung -
Di, 21.08. 12:00 0.0 l/m2 in 1 Std. -
Di, 21.08. 11:50 keine Meldung -
Di, 21.08. 11:40 keine Meldung -
Di, 21.08. 11:30 0.0 l/m2 in 1 Std. -
Di, 21.08. 11:00 0.0 l/m2 in 1 Std. -
Di, 21.08. 10:30 0.0 l/m2 in 1 Std. -
Di, 21.08. 10:00 0.0 l/m2 in 1 Std. -
Di, 21.08. 9:30 0.0 l/m2 in 1 Std. -
Ortszeit Stärke Spitze Richtung
km/h Bft. km/h Grad Sektor
Di, 21.08. 8:00 2 1 7 100° O
Di, 21.08. 2:00 4 1 14 130° SO
Mo, 20.08. 20:00 7 2 29 230° SW
Mo, 20.08. 14:00 14 3 29 260° W
Mo, 20.08. 8:00 11 2 22 270° W
Mo, 20.08. 2:00 4 1 22 180° S
So, 19.08. 20:00 13 3 31 290° W
So, 19.08. 14:00 11 2 25 250° W
Ortszeit Stärke Spitze Richtung
km/h Bft. km/h Grad Sektor
Di, 21.08. 12:30 7 2 11 70° O
Di, 21.08. 12:20 7 2 - 70° O
Di, 21.08. 12:10 7 2 - 60° NO
Di, 21.08. 12:00 9 2 15 50° NO
Di, 21.08. 11:50 9 2 - 50° NO
Di, 21.08. 11:40 11 2 - 50° NO
Di, 21.08. 11:30 7 2 11 40° NO
Di, 21.08. 11:00 7 2 11 270° W
Di, 21.08. 10:30 4 1 11 270° W
Di, 21.08. 10:00 4 1 7 30° NO
Di, 21.08. 9:30 6 1 7 180° S
Ortszeit Untergrenze Bedeckung Gattung
total tief tief mittel hoch
Di, 21.08. 8:00 2100 m 1/8 1/8 - - -
Di, 21.08. 2:00 1110 m 7/8 1/8 - - -
Mo, 20.08. 20:00 810 m 8/8 8/8 - - -
Mo, 20.08. 14:00 720 m 8/8 8/8 - - -
Mo, 20.08. 8:00 540 m 8/8 8/8 - - -
Mo, 20.08. 2:00 1050 m 6/8 6/8 - - -
So, 19.08. 20:00 2400 m 0/8 0/8 - - -
So, 19.08. 14:00 2100 m 4/8 2/8 - - -
Ortszeit Bedeckungsgrad in Achtel und Wolkenuntergrenze
Di, 21.08. 12:30 8(2100m)
Di, 21.08. 12:20 8(2100m)
Di, 21.08. 12:10 8(2100m)
Di, 21.08. 12:00 7(2100m)
Di, 21.08. 11:50 7(2100m)
Di, 21.08. 11:40 5(2100m)
Di, 21.08. 11:30 1(2400m)
Di, 21.08. 11:00 keine Wolken
Di, 21.08. 10:30 keine Wolken
Di, 21.08. 10:00 keine Wolken
Di, 21.08. 9:30 keine Wolken
Ortszeit Luftdruck NN (hPa) Tendenz (hPa in 3 Std.)
Di, 21.08. 8:00 1021 + 0,5
Di, 21.08. 2:00 1021 + 0,8
Mo, 20.08. 20:00 1019 - 0,4
Mo, 20.08. 14:00 1019 0,0
Mo, 20.08. 8:00 1018 + 0,7
Mo, 20.08. 2:00 1018 + 0,2
So, 19.08. 20:00 1017 - 0,5
So, 19.08. 14:00 1020 - 1,8
Ortszeit Luftdruck NN (hPa) Tendenz (hPa in 3 Std.)
Di, 21.08. 12:30 1021 - 0,2
Di, 21.08. 12:20 1021 keine Meldung
Di, 21.08. 12:10 1021 keine Meldung
Di, 21.08. 12:00 1021 - 0,2
Di, 21.08. 11:50 1021 keine Meldung
Di, 21.08. 11:40 1021 keine Meldung
Di, 21.08. 11:30 1021 + 0,2
Di, 21.08. 11:00 1021 + 0,4
Di, 21.08. 10:30 1021 + 0,7
Di, 21.08. 10:00 1021 + 0,6
Di, 21.08. 9:30 1021 + 0,7
Ortszeit Schneehöhe (cm)
Di, 21.08. 8:00 -
Di, 21.08. 2:00 -
Mo, 20.08. 20:00 -
Mo, 20.08. 14:00 -
Mo, 20.08. 8:00 -
Mo, 20.08. 2:00 -
So, 19.08. 20:00 -
So, 19.08. 14:00 -
Ortszeit Schneehöhe (cm)
Di, 21.08. 12:30 -
Di, 21.08. 12:20 -
Di, 21.08. 12:10 -
Di, 21.08. 12:00 -
Di, 21.08. 11:50 -
Di, 21.08. 11:40 -
Di, 21.08. 11:30 -
Di, 21.08. 11:00 -
Di, 21.08. 10:30 -
Di, 21.08. 10:00 -
Di, 21.08. 9:30 -
Link zu dieser Seite / Seite empfehlen

Das Wetter in ...